createdAt,value
2022-11-03T00:00:21.067Z,17.7
2022-11-03T00:10:29.736Z,17.6
2022-11-03T00:20:37.491Z,17.7
2022-11-03T00:30:45.410Z,17.7
2022-11-03T00:40:53.414Z,17.5
2022-11-03T00:51:01.382Z,17.4
2022-11-03T01:01:09.433Z,17.3
2022-11-03T01:11:17.461Z,17.4
2022-11-03T01:21:25.520Z,17.7
2022-11-03T01:31:33.462Z,17.6
2022-11-03T01:41:41.354Z,17.3
2022-11-03T01:51:49.193Z,17.2
2022-11-03T02:01:57.153Z,17
2022-11-03T02:12:05.070Z,16.9
2022-11-03T02:22:12.978Z,17.3
2022-11-03T02:32:20.846Z,17.4
2022-11-03T02:42:28.784Z,17.4
2022-11-03T02:52:36.791Z,17.4
2022-11-03T03:02:44.658Z,17
2022-11-03T03:12:52.695Z,16.9
2022-11-03T03:23:00.103Z,16.8
2022-11-03T03:33:06.873Z,16.7
2022-11-03T03:43:14.603Z,17
2022-11-03T03:53:22.315Z,17.3
2022-11-03T04:03:30.304Z,17.3
2022-11-03T04:13:38.276Z,17.1
2022-11-03T04:23:47.390Z,16.9
2022-11-03T04:33:56.494Z,16.8
2022-11-03T04:44:04.329Z,16.5
2022-11-03T04:54:12.173Z,16.6
2022-11-03T05:04:20.176Z,16.9
2022-11-03T05:14:20.569Z,17.1
2022-11-03T05:24:30.333Z,17.1
2022-11-03T05:34:38.156Z,16.9
2022-11-03T05:44:46.159Z,16.9
2022-11-03T05:54:54.215Z,17.1
2022-11-03T06:05:02.112Z,17.4
2022-11-03T06:15:10.989Z,17.7
2022-11-03T06:25:20.034Z,17.7
2022-11-03T06:35:19.430Z,17.4
2022-11-03T06:45:27.338Z,17.2
2022-11-03T06:55:35.239Z,17.3
2022-11-03T07:05:42.926Z,17.2
2022-11-03T07:15:50.818Z,17.3
2022-11-03T07:25:58.748Z,17.6
2022-11-03T07:36:15.244Z,17.7
2022-11-03T07:46:13.538Z,17.9
2022-11-03T07:56:21.542Z,18
2022-11-03T08:06:29.789Z,18.3
2022-11-03T08:16:37.805Z,18.4
2022-11-03T08:26:45.827Z,18.4
2022-11-03T08:36:54.518Z,19
2022-11-03T08:47:02.554Z,19.2
2022-11-03T08:57:10.539Z,19.4
2022-11-03T09:07:18.694Z,19.7
2022-11-03T09:17:27.619Z,20.3
2022-11-03T09:27:35.143Z,20.7
2022-11-03T09:37:43.020Z,21.1
2022-11-03T09:47:53.359Z,21.5
2022-11-03T09:58:00.809Z,21.5
2022-11-03T10:08:08.899Z,22
2022-11-03T10:18:15.978Z,22.8
2022-11-03T10:28:25.108Z,22.9
2022-11-03T10:38:34.832Z,23
2022-11-03T10:48:42.870Z,23.2
2022-11-03T10:58:50.955Z,23.2
2022-11-03T11:09:00.030Z,23.1
2022-11-03T11:19:06.853Z,23.6
2022-11-03T11:29:16.497Z,24.3
2022-11-03T11:39:24.592Z,24.6
2022-11-03T11:49:32.696Z,24.2
2022-11-03T11:59:41.069Z,24.1
2022-11-03T12:09:50.442Z,23.7
2022-11-03T12:19:51.733Z,23.8
2022-11-03T12:29:51.395Z,23.7
2022-11-03T12:39:51.988Z,23.5
2022-11-03T12:50:02.242Z,23.2
2022-11-03T13:00:12.369Z,23.2
2022-11-03T13:10:13.223Z,23
2022-11-03T13:20:14.563Z,22.7
2022-11-03T13:30:16.285Z,22.4
2022-11-03T13:40:36.110Z,22.6
2022-11-03T13:50:20.371Z,23
2022-11-03T14:00:27.716Z,23.2
2022-11-03T14:10:35.829Z,23.1
2022-11-03T14:20:45.742Z,22.9
2022-11-03T14:30:44.490Z,22.6
2022-11-03T14:40:44.868Z,22.5
2022-11-03T14:50:53.210Z,22.8
2022-11-03T15:01:02.378Z,22.9
2022-11-03T15:11:11.346Z,23.4
2022-11-03T15:21:19.612Z,23.6
2022-11-03T15:31:20.413Z,23.1
2022-11-03T15:41:28.307Z,22.8
2022-11-03T15:51:28.502Z,23
2022-11-03T16:01:36.604Z,22.7
2022-11-03T16:11:45.095Z,22.5
2022-11-03T16:21:46.235Z,22.5
2022-11-03T16:31:54.183Z,22.4
2022-11-03T16:42:02.204Z,22.1
2022-11-03T16:52:10.109Z,21.9
2022-11-03T17:02:18.194Z,22
2022-11-03T17:12:26.116Z,21.8
2022-11-03T17:22:34.026Z,21.7
2022-11-03T17:32:41.937Z,21.4
2022-11-03T17:42:49.987Z,21.4
2022-11-03T17:52:57.990Z,21.5
2022-11-03T18:02:57.837Z,21.2
2022-11-03T18:13:05.959Z,21.1
2022-11-03T18:23:14.895Z,21
2022-11-03T18:33:23.213Z,20.9
2022-11-03T18:43:31.494Z,21.1
2022-11-03T18:53:40.621Z,21.3
2022-11-03T19:03:50.025Z,21.3
2022-11-03T19:14:16.775Z,21.3
2022-11-03T19:24:07.467Z,21.2
2022-11-03T19:34:10.414Z,21.3
2022-11-03T19:44:12.900Z,21.2
2022-11-03T19:54:15.206Z,21
2022-11-03T20:04:21.720Z,21.1
2022-11-03T20:14:35.234Z,21
2022-11-03T20:34:44.790Z,21
2022-11-03T20:44:46.358Z,21
2022-11-03T20:54:56.474Z,21
2022-11-03T21:04:57.321Z,21.1
2022-11-03T21:15:06.535Z,20.9
2022-11-03T21:25:06.563Z,21.2
2022-11-03T21:35:06.699Z,21.1
2022-11-03T21:45:08.177Z,20.9
2022-11-03T21:55:12.304Z,21.2
2022-11-03T22:05:20.635Z,21.1
2022-11-03T22:25:36.768Z,21
2022-11-03T22:35:45.375Z,20.8
2022-11-03T22:45:55.508Z,20.7
2022-11-03T22:55:53.990Z,20.6
2022-11-03T23:06:02.227Z,20.6
2022-11-03T23:16:10.529Z,20.4
2022-11-03T23:26:18.751Z,20.4
2022-11-03T23:36:26.830Z,20.3
2022-11-03T23:46:56.498Z,20
2022-11-03T23:56:42.625Z,20
